<?xml version="1.0" encoding="UTF-8" standalone="no" ?>
<gpx xmlns="http://www.topografix.com/GPX/1/1" xmlns:xsi="http://www.w3.org/2001/XMLSchema-instance" xsi:schemaLocation="http://www.topografix.com/GPX/1/1 http://www.topografix.com/GPX/1/1/gpx.xsd" version="1.1" creator="VisuGPX - https://www.visugpx.com">
  <metadata>
    <name>Autour de Saïx Tarn</name>
    <desc><![CDATA[Circuit Mixte TT/Route typé XC ou Enduro, quelque difficultés techniques courtes, praticable par temps de pluie]]></desc>
  </metadata>
  <trk>
    <name><![CDATA[--Saïx-- OR-6059915:La Saïxole 2]]></name>
    <trkseg>
      <trkpt lat="43.58146" lon="2.18269">
        <ele>184</ele>
        <time>2016-05-13T21:17:38Z</time>
      </trkpt>
      <trkpt lat="43.58089" lon="2.18177">
        <ele>187</ele>
        <time>2016-05-13T21:19:38Z</time>
      </trkpt>
      <trkpt lat="43.58052" lon="2.18144">
        <ele>191</ele>
        <time>2016-05-13T21:21:38Z</time>
      </trkpt>
      <trkpt lat="43.58048" lon="2.18131">
        <ele>192</ele>
        <time>2016-05-13T21:23:38Z</time>
      </trkpt>
      <trkpt lat="43.58034" lon="2.18134">
        <ele>194</ele>
        <time>2016-05-13T21:25:38Z</time>
      </trkpt>
      <trkpt lat="43.58024" lon="2.18133">
        <ele>195</ele>
        <time>2016-05-13T21:27:38Z</time>
      </trkpt>
      <trkpt lat="43.58014" lon="2.18144">
        <ele>196</ele>
        <time>2016-05-13T21:29:38Z</time>
      </trkpt>
      <trkpt lat="43.58" lon="2.1817">
        <ele>195</ele>
        <time>2016-05-13T21:31:38Z</time>
      </trkpt>
      <trkpt lat="43.5799" lon="2.18173">
        <ele>196</ele>
        <time>2016-05-13T21:33:38Z</time>
      </trkpt>
      <trkpt lat="43.57986" lon="2.18167">
        <ele>197</ele>
        <time>2016-05-13T21:35:38Z</time>
      </trkpt>
      <trkpt lat="43.57984" lon="2.18152">
        <ele>199</ele>
        <time>2016-05-13T21:37:38Z</time>
      </trkpt>
      <trkpt lat="43.57983" lon="2.18126">
        <ele>202</ele>
        <time>2016-05-13T21:39:38Z</time>
      </trkpt>
      <trkpt lat="43.57999" lon="2.18028">
        <ele>212</ele>
        <time>2016-05-13T21:41:38Z</time>
      </trkpt>
      <trkpt lat="43.57994" lon="2.18002">
        <ele>216</ele>
        <time>2016-05-13T21:43:38Z</time>
      </trkpt>
      <trkpt lat="43.57971" lon="2.18044">
        <ele>216</ele>
        <time>2016-05-13T21:45:38Z</time>
      </trkpt>
      <trkpt lat="43.57938" lon="2.17969">
        <ele>232</ele>
        <time>2016-05-13T21:47:38Z</time>
      </trkpt>
      <trkpt lat="43.57934" lon="2.17942">
        <ele>235</ele>
        <time>2016-05-13T21:49:38Z</time>
      </trkpt>
      <trkpt lat="43.57942" lon="2.17831">
        <ele>238</ele>
        <time>2016-05-13T21:51:38Z</time>
      </trkpt>
      <trkpt lat="43.57947" lon="2.17767">
        <ele>239</ele>
        <time>2016-05-13T21:53:38Z</time>
      </trkpt>
      <trkpt lat="43.57772" lon="2.17663">
        <ele>240</ele>
        <time>2016-05-13T21:55:38Z</time>
      </trkpt>
      <trkpt lat="43.57695" lon="2.17633">
        <ele>238</ele>
        <time>2016-05-13T21:57:38Z</time>
      </trkpt>
      <trkpt lat="43.57701" lon="2.1755">
        <ele>239</ele>
        <time>2016-05-13T21:59:38Z</time>
      </trkpt>
      <trkpt lat="43.57628" lon="2.17346">
        <ele>239</ele>
        <time>2016-05-13T22:01:38Z</time>
      </trkpt>
      <trkpt lat="43.57612" lon="2.17313">
        <ele>239</ele>
        <time>2016-05-13T22:03:38Z</time>
      </trkpt>
      <trkpt lat="43.5749" lon="2.17103">
        <ele>238</ele>
        <time>2016-05-13T22:05:38Z</time>
      </trkpt>
      <trkpt lat="43.57488" lon="2.1711">
        <ele>238</ele>
        <time>2016-05-13T22:07:38Z</time>
      </trkpt>
      <trkpt lat="43.57479" lon="2.17113">
        <ele>238</ele>
        <time>2016-05-13T22:09:38Z</time>
      </trkpt>
      <trkpt lat="43.57447" lon="2.17115">
        <ele>237</ele>
        <time>2016-05-13T22:11:38Z</time>
      </trkpt>
      <trkpt lat="43.57399" lon="2.17104">
        <ele>236</ele>
        <time>2016-05-13T22:13:38Z</time>
      </trkpt>
      <trkpt lat="43.57394" lon="2.17099">
        <ele>236</ele>
        <time>2016-05-13T22:15:38Z</time>
      </trkpt>
      <trkpt lat="43.57389" lon="2.17086">
        <ele>235</ele>
        <time>2016-05-13T22:17:38Z</time>
      </trkpt>
      <trkpt lat="43.57321" lon="2.17049">
        <ele>236</ele>
        <time>2016-05-13T22:19:38Z</time>
      </trkpt>
      <trkpt lat="43.57307" lon="2.17038">
        <ele>235</ele>
        <time>2016-05-13T22:21:38Z</time>
      </trkpt>
      <trkpt lat="43.57293" lon="2.17024">
        <ele>235</ele>
        <time>2016-05-13T22:23:38Z</time>
      </trkpt>
      <trkpt lat="43.57281" lon="2.17032">
        <ele>235</ele>
        <time>2016-05-13T22:25:38Z</time>
      </trkpt>
      <trkpt lat="43.57261" lon="2.1706">
        <ele>236</ele>
        <time>2016-05-13T22:27:38Z</time>
      </trkpt>
      <trkpt lat="43.57254" lon="2.17073">
        <ele>237</ele>
        <time>2016-05-13T22:29:38Z</time>
      </trkpt>
      <trkpt lat="43.57253" lon="2.17082">
        <ele>237</ele>
        <time>2016-05-13T22:31:38Z</time>
      </trkpt>
      <trkpt lat="43.5725" lon="2.17095">
        <ele>237</ele>
        <time>2016-05-13T22:33:38Z</time>
      </trkpt>
      <trkpt lat="43.57245" lon="2.171">
        <ele>237</ele>
        <time>2016-05-13T22:35:38Z</time>
      </trkpt>
      <trkpt lat="43.57237" lon="2.17102">
        <ele>237</ele>
        <time>2016-05-13T22:37:38Z</time>
      </trkpt>
      <trkpt lat="43.57229" lon="2.17102">
        <ele>237</ele>
        <time>2016-05-13T22:39:38Z</time>
      </trkpt>
      <trkpt lat="43.57199" lon="2.17095">
        <ele>236</ele>
        <time>2016-05-13T22:41:38Z</time>
      </trkpt>
      <trkpt lat="43.57164" lon="2.1708">
        <ele>236</ele>
        <time>2016-05-13T22:43:38Z</time>
      </trkpt>
      <trkpt lat="43.5714" lon="2.17075">
        <ele>236</ele>
        <time>2016-05-13T22:45:38Z</time>
      </trkpt>
      <trkpt lat="43.57134" lon="2.17075">
        <ele>236</ele>
        <time>2016-05-13T22:47:38Z</time>
      </trkpt>
      <trkpt lat="43.57122" lon="2.17081">
        <ele>236</ele>
        <time>2016-05-13T22:49:38Z</time>
      </trkpt>
      <trkpt lat="43.57114" lon="2.17088">
        <ele>236</ele>
        <time>2016-05-13T22:51:38Z</time>
      </trkpt>
      <trkpt lat="43.57109" lon="2.17096">
        <ele>236</ele>
        <time>2016-05-13T22:53:38Z</time>
      </trkpt>
      <trkpt lat="43.57102" lon="2.17122">
        <ele>236</ele>
        <time>2016-05-13T22:55:38Z</time>
      </trkpt>
      <trkpt lat="43.57122" lon="2.17177">
        <ele>237</ele>
        <time>2016-05-13T22:57:38Z</time>
      </trkpt>
      <trkpt lat="43.57143" lon="2.1725">
        <ele>238</ele>
        <time>2016-05-13T22:59:38Z</time>
      </trkpt>
      <trkpt lat="43.5715" lon="2.17283">
        <ele>238</ele>
        <time>2016-05-13T23:01:38Z</time>
      </trkpt>
      <trkpt lat="43.57173" lon="2.17423">
        <ele>242</ele>
        <time>2016-05-13T23:03:38Z</time>
      </trkpt>
      <trkpt lat="43.57239" lon="2.17432">
        <ele>241</ele>
        <time>2016-05-13T23:05:38Z</time>
      </trkpt>
      <trkpt lat="43.57273" lon="2.17446">
        <ele>241</ele>
        <time>2016-05-13T23:07:38Z</time>
      </trkpt>
      <trkpt lat="43.57325" lon="2.17489">
        <ele>241</ele>
        <time>2016-05-13T23:09:38Z</time>
      </trkpt>
      <trkpt lat="43.57373" lon="2.17534">
        <ele>241</ele>
        <time>2016-05-13T23:11:38Z</time>
      </trkpt>
      <trkpt lat="43.57488" lon="2.17605">
        <ele>241</ele>
        <time>2016-05-13T23:13:38Z</time>
      </trkpt>
      <trkpt lat="43.57561" lon="2.17676">
        <ele>239</ele>
        <time>2016-05-13T23:15:38Z</time>
      </trkpt>
      <trkpt lat="43.57645" lon="2.17551">
        <ele>239</ele>
        <time>2016-05-13T23:17:38Z</time>
      </trkpt>
      <trkpt lat="43.57692" lon="2.17522">
        <ele>239</ele>
        <time>2016-05-13T23:19:38Z</time>
      </trkpt>
      <trkpt lat="43.57618" lon="2.17322">
        <ele>239</ele>
        <time>2016-05-13T23:21:38Z</time>
      </trkpt>
      <trkpt lat="43.57495" lon="2.17111">
        <ele>238</ele>
        <time>2016-05-13T23:23:38Z</time>
      </trkpt>
      <trkpt lat="43.57473" lon="2.17058">
        <ele>237</ele>
        <time>2016-05-13T23:25:38Z</time>
      </trkpt>
      <trkpt lat="43.57459" lon="2.17001">
        <ele>236</ele>
        <time>2016-05-13T23:27:38Z</time>
      </trkpt>
      <trkpt lat="43.57455" lon="2.16969">
        <ele>235</ele>
        <time>2016-05-13T23:29:38Z</time>
      </trkpt>
      <trkpt lat="43.57438" lon="2.16857">
        <ele>231</ele>
        <time>2016-05-13T23:31:38Z</time>
      </trkpt>
      <trkpt lat="43.5743" lon="2.16758">
        <ele>228</ele>
        <time>2016-05-13T23:33:38Z</time>
      </trkpt>
      <trkpt lat="43.57436" lon="2.16692">
        <ele>226</ele>
        <time>2016-05-13T23:35:38Z</time>
      </trkpt>
      <trkpt lat="43.57444" lon="2.166">
        <ele>221</ele>
        <time>2016-05-13T23:37:38Z</time>
      </trkpt>
      <trkpt lat="43.57444" lon="2.16542">
        <ele>219</ele>
        <time>2016-05-13T23:39:38Z</time>
      </trkpt>
      <trkpt lat="43.57459" lon="2.16439">
        <ele>217</ele>
        <time>2016-05-13T23:41:38Z</time>
      </trkpt>
      <trkpt lat="43.57493" lon="2.16331">
        <ele>216</ele>
        <time>2016-05-13T23:43:38Z</time>
      </trkpt>
      <trkpt lat="43.5754" lon="2.16371">
        <ele>216</ele>
        <time>2016-05-13T23:45:38Z</time>
      </trkpt>
      <trkpt lat="43.57638" lon="2.16403">
        <ele>220</ele>
        <time>2016-05-13T23:47:38Z</time>
      </trkpt>
      <trkpt lat="43.5765" lon="2.16404">
        <ele>220</ele>
        <time>2016-05-13T23:49:38Z</time>
      </trkpt>
      <trkpt lat="43.57692" lon="2.16398">
        <ele>221</ele>
        <time>2016-05-13T23:51:38Z</time>
      </trkpt>
      <trkpt lat="43.57693" lon="2.16372">
        <ele>220</ele>
        <time>2016-05-13T23:53:38Z</time>
      </trkpt>
      <trkpt lat="43.57691" lon="2.16364">
        <ele>219</ele>
        <time>2016-05-13T23:55:38Z</time>
      </trkpt>
      <trkpt lat="43.57682" lon="2.16333">
        <ele>218</ele>
        <time>2016-05-13T23:57:38Z</time>
      </trkpt>
      <trkpt lat="43.57676" lon="2.16323">
        <ele>218</ele>
        <time>2016-05-13T23:59:38Z</time>
      </trkpt>
      <trkpt lat="43.57668" lon="2.16289">
        <ele>217</ele>
        <time>2016-05-14T00:01:38Z</time>
      </trkpt>
      <trkpt lat="43.57663" lon="2.1627">
        <ele>217</ele>
        <time>2016-05-14T00:03:38Z</time>
      </trkpt>
      <trkpt lat="43.57655" lon="2.16248">
        <ele>216</ele>
        <time>2016-05-14T00:05:38Z</time>
      </trkpt>
      <trkpt lat="43.57654" lon="2.16242">
        <ele>216</ele>
        <time>2016-05-14T00:07:38Z</time>
      </trkpt>
      <trkpt lat="43.57655" lon="2.16236">
        <ele>216</ele>
        <time>2016-05-14T00:09:38Z</time>
      </trkpt>
      <trkpt lat="43.57665" lon="2.16214">
        <ele>217</ele>
        <time>2016-05-14T00:11:38Z</time>
      </trkpt>
      <trkpt lat="43.57676" lon="2.16172">
        <ele>217</ele>
        <time>2016-05-14T00:13:38Z</time>
      </trkpt>
      <trkpt lat="43.57695" lon="2.16097">
        <ele>215</ele>
        <time>2016-05-14T00:15:38Z</time>
      </trkpt>
      <trkpt lat="43.57705" lon="2.16067">
        <ele>215</ele>
        <time>2016-05-14T00:17:38Z</time>
      </trkpt>
      <trkpt lat="43.57713" lon="2.16048">
        <ele>216</ele>
        <time>2016-05-14T00:19:38Z</time>
      </trkpt>
      <trkpt lat="43.57727" lon="2.16029">
        <ele>217</ele>
        <time>2016-05-14T00:21:38Z</time>
      </trkpt>
      <trkpt lat="43.57745" lon="2.16003">
        <ele>218</ele>
        <time>2016-05-14T00:23:38Z</time>
      </trkpt>
      <trkpt lat="43.57772" lon="2.15962">
        <ele>218</ele>
        <time>2016-05-14T00:25:38Z</time>
      </trkpt>
      <trkpt lat="43.57784" lon="2.15941">
        <ele>218</ele>
        <time>2016-05-14T00:27:38Z</time>
      </trkpt>
      <trkpt lat="43.57787" lon="2.15933">
        <ele>218</ele>
        <time>2016-05-14T00:29:38Z</time>
      </trkpt>
      <trkpt lat="43.57787" lon="2.15925">
        <ele>218</ele>
        <time>2016-05-14T00:31:38Z</time>
      </trkpt>
      <trkpt lat="43.57786" lon="2.15917">
        <ele>218</ele>
        <time>2016-05-14T00:33:38Z</time>
      </trkpt>
      <trkpt lat="43.57783" lon="2.15911">
        <ele>218</ele>
        <time>2016-05-14T00:35:38Z</time>
      </trkpt>
      <trkpt lat="43.57774" lon="2.15892">
        <ele>218</ele>
        <time>2016-05-14T00:37:38Z</time>
      </trkpt>
      <trkpt lat="43.5777" lon="2.15876">
        <ele>218</ele>
        <time>2016-05-14T00:39:38Z</time>
      </trkpt>
      <trkpt lat="43.57771" lon="2.15862">
        <ele>217</ele>
        <time>2016-05-14T00:41:38Z</time>
      </trkpt>
      <trkpt lat="43.57767" lon="2.15844">
        <ele>217</ele>
        <time>2016-05-14T00:43:38Z</time>
      </trkpt>
      <trkpt lat="43.57767" lon="2.15833">
        <ele>217</ele>
        <time>2016-05-14T00:45:38Z</time>
      </trkpt>
      <trkpt lat="43.57779" lon="2.15808">
        <ele>215</ele>
        <time>2016-05-14T00:47:38Z</time>
      </trkpt>
      <trkpt lat="43.57791" lon="2.15788">
        <ele>214</ele>
        <time>2016-05-14T00:49:38Z</time>
      </trkpt>
      <trkpt lat="43.57799" lon="2.1578">
        <ele>214</ele>
        <time>2016-05-14T00:51:38Z</time>
      </trkpt>
      <trkpt lat="43.57803" lon="2.15774">
        <ele>213</ele>
        <time>2016-05-14T00:53:38Z</time>
      </trkpt>
      <trkpt lat="43.57808" lon="2.15766">
        <ele>213</ele>
        <time>2016-05-14T00:55:38Z</time>
      </trkpt>
      <trkpt lat="43.57809" lon="2.1576">
        <ele>213</ele>
        <time>2016-05-14T00:57:38Z</time>
      </trkpt>
      <trkpt lat="43.57808" lon="2.15754">
        <ele>212</ele>
        <time>2016-05-14T00:59:38Z</time>
      </trkpt>
      <trkpt lat="43.57807" lon="2.15749">
        <ele>212</ele>
        <time>2016-05-14T01:01:38Z</time>
      </trkpt>
      <trkpt lat="43.57804" lon="2.15743">
        <ele>212</ele>
        <time>2016-05-14T01:03:38Z</time>
      </trkpt>
      <trkpt lat="43.57801" lon="2.1574">
        <ele>212</ele>
        <time>2016-05-14T01:05:38Z</time>
      </trkpt>
      <trkpt lat="43.57797" lon="2.15738">
        <ele>212</ele>
        <time>2016-05-14T01:07:38Z</time>
      </trkpt>
      <trkpt lat="43.57795" lon="2.15734">
        <ele>212</ele>
        <time>2016-05-14T01:09:38Z</time>
      </trkpt>
      <trkpt lat="43.57794" lon="2.1573">
        <ele>212</ele>
        <time>2016-05-14T01:11:38Z</time>
      </trkpt>
      <trkpt lat="43.57793" lon="2.15724">
        <ele>212</ele>
        <time>2016-05-14T01:13:38Z</time>
      </trkpt>
      <trkpt lat="43.57795" lon="2.15715">
        <ele>211</ele>
        <time>2016-05-14T01:15:38Z</time>
      </trkpt>
      <trkpt lat="43.57799" lon="2.15702">
        <ele>211</ele>
        <time>2016-05-14T01:17:38Z</time>
      </trkpt>
      <trkpt lat="43.578" lon="2.15698">
        <ele>210</ele>
        <time>2016-05-14T01:19:38Z</time>
      </trkpt>
      <trkpt lat="43.57799" lon="2.15686">
        <ele>210</ele>
        <time>2016-05-14T01:21:38Z</time>
      </trkpt>
      <trkpt lat="43.57801" lon="2.15679">
        <ele>209</ele>
        <time>2016-05-14T01:23:38Z</time>
      </trkpt>
      <trkpt lat="43.57805" lon="2.15669">
        <ele>209</ele>
        <time>2016-05-14T01:25:38Z</time>
      </trkpt>
      <trkpt lat="43.57805" lon="2.1565">
        <ele>206</ele>
        <time>2016-05-14T01:27:38Z</time>
      </trkpt>
      <trkpt lat="43.57803" lon="2.15647">
        <ele>206</ele>
        <time>2016-05-14T01:29:38Z</time>
      </trkpt>
      <trkpt lat="43.57802" lon="2.15643">
        <ele>206</ele>
        <time>2016-05-14T01:31:38Z</time>
      </trkpt>
      <trkpt lat="43.57786" lon="2.15602">
        <ele>200</ele>
        <time>2016-05-14T01:33:38Z</time>
      </trkpt>
      <trkpt lat="43.57783" lon="2.156">
        <ele>200</ele>
        <time>2016-05-14T01:35:38Z</time>
      </trkpt>
      <trkpt lat="43.57779" lon="2.15601">
        <ele>201</ele>
        <time>2016-05-14T01:37:38Z</time>
      </trkpt>
      <trkpt lat="43.57776" lon="2.15599">
        <ele>200</ele>
        <time>2016-05-14T01:39:38Z</time>
      </trkpt>
      <trkpt lat="43.57771" lon="2.15586">
        <ele>199</ele>
        <time>2016-05-14T01:41:38Z</time>
      </trkpt>
      <trkpt lat="43.5777" lon="2.15577">
        <ele>197</ele>
        <time>2016-05-14T01:43:38Z</time>
      </trkpt>
      <trkpt lat="43.57769" lon="2.15569">
        <ele>196</ele>
        <time>2016-05-14T01:45:38Z</time>
      </trkpt>
      <trkpt lat="43.57767" lon="2.15564">
        <ele>196</ele>
        <time>2016-05-14T01:47:38Z</time>
      </trkpt>
      <trkpt lat="43.57764" lon="2.15558">
        <ele>195</ele>
        <time>2016-05-14T01:49:38Z</time>
      </trkpt>
      <trkpt lat="43.57743" lon="2.15544">
        <ele>192</ele>
        <time>2016-05-14T01:51:38Z</time>
      </trkpt>
      <trkpt lat="43.57735" lon="2.15542">
        <ele>192</ele>
        <time>2016-05-14T01:53:38Z</time>
      </trkpt>
      <trkpt lat="43.5773" lon="2.15538">
        <ele>191</ele>
        <time>2016-05-14T01:55:38Z</time>
      </trkpt>
      <trkpt lat="43.57725" lon="2.15528">
        <ele>189</ele>
        <time>2016-05-14T01:57:38Z</time>
      </trkpt>
      <trkpt lat="43.57723" lon="2.15525">
        <ele>189</ele>
        <time>2016-05-14T01:59:38Z</time>
      </trkpt>
      <trkpt lat="43.57684" lon="2.15526">
        <ele>187</ele>
        <time>2016-05-14T02:01:38Z</time>
      </trkpt>
      <trkpt lat="43.57661" lon="2.15532">
        <ele>187</ele>
        <time>2016-05-14T02:03:38Z</time>
      </trkpt>
      <trkpt lat="43.57648" lon="2.15539">
        <ele>186</ele>
        <time>2016-05-14T02:05:38Z</time>
      </trkpt>
      <trkpt lat="43.57636" lon="2.1555">
        <ele>186</ele>
        <time>2016-05-14T02:07:38Z</time>
      </trkpt>
      <trkpt lat="43.57625" lon="2.1556">
        <ele>186</ele>
        <time>2016-05-14T02:09:38Z</time>
      </trkpt>
      <trkpt lat="43.57613" lon="2.15566">
        <ele>185</ele>
        <time>2016-05-14T02:11:38Z</time>
      </trkpt>
      <trkpt lat="43.57598" lon="2.15573">
        <ele>184</ele>
        <time>2016-05-14T02:13:38Z</time>
      </trkpt>
      <trkpt lat="43.57593" lon="2.15864">
        <ele>202</ele>
        <time>2016-05-14T02:15:38Z</time>
      </trkpt>
      <trkpt lat="43.57586" lon="2.15984">
        <ele>205</ele>
        <time>2016-05-14T02:17:38Z</time>
      </trkpt>
      <trkpt lat="43.57582" lon="2.16043">
        <ele>206</ele>
        <time>2016-05-14T02:19:38Z</time>
      </trkpt>
      <trkpt lat="43.57577" lon="2.16071">
        <ele>206</ele>
        <time>2016-05-14T02:21:38Z</time>
      </trkpt>
      <trkpt lat="43.5757" lon="2.161">
        <ele>208</ele>
        <time>2016-05-14T02:23:38Z</time>
      </trkpt>
      <trkpt lat="43.5749" lon="2.16329">
        <ele>216</ele>
        <time>2016-05-14T02:25:38Z</time>
      </trkpt>
      <trkpt lat="43.57473" lon="2.16317">
        <ele>215</ele>
        <time>2016-05-14T02:27:38Z</time>
      </trkpt>
      <trkpt lat="43.57455" lon="2.16297">
        <ele>213</ele>
        <time>2016-05-14T02:29:38Z</time>
      </trkpt>
      <trkpt lat="43.57437" lon="2.16271">
        <ele>212</ele>
        <time>2016-05-14T02:31:38Z</time>
      </trkpt>
      <trkpt lat="43.57415" lon="2.16216">
        <ele>212</ele>
        <time>2016-05-14T02:33:38Z</time>
      </trkpt>
      <trkpt lat="43.57398" lon="2.16153">
        <ele>214</ele>
        <time>2016-05-14T02:35:38Z</time>
      </trkpt>
      <trkpt lat="43.57399" lon="2.16121">
        <ele>215</ele>
        <time>2016-05-14T02:37:38Z</time>
      </trkpt>
      <trkpt lat="43.57404" lon="2.16069">
        <ele>216</ele>
        <time>2016-05-14T02:39:38Z</time>
      </trkpt>
      <trkpt lat="43.57407" lon="2.16044">
        <ele>215</ele>
        <time>2016-05-14T02:41:38Z</time>
      </trkpt>
      <trkpt lat="43.57404" lon="2.1603">
        <ele>214</ele>
        <time>2016-05-14T02:43:38Z</time>
      </trkpt>
      <trkpt lat="43.57396" lon="2.16022">
        <ele>212</ele>
        <time>2016-05-14T02:45:38Z</time>
      </trkpt>
      <trkpt lat="43.57385" lon="2.16021">
        <ele>211</ele>
        <time>2016-05-14T02:47:38Z</time>
      </trkpt>
      <trkpt lat="43.57336" lon="2.16037">
        <ele>208</ele>
        <time>2016-05-14T02:49:38Z</time>
      </trkpt>
      <trkpt lat="43.57301" lon="2.1604">
        <ele>204</ele>
        <time>2016-05-14T02:51:38Z</time>
      </trkpt>
      <trkpt lat="43.57262" lon="2.16046">
        <ele>200</ele>
        <time>2016-05-14T02:53:38Z</time>
      </trkpt>
      <trkpt lat="43.57231" lon="2.1606">
        <ele>197</ele>
        <time>2016-05-14T02:55:38Z</time>
      </trkpt>
      <trkpt lat="43.57188" lon="2.16099">
        <ele>192</ele>
        <time>2016-05-14T02:57:38Z</time>
      </trkpt>
      <trkpt lat="43.57162" lon="2.1613">
        <ele>186</ele>
        <time>2016-05-14T02:59:38Z</time>
      </trkpt>
      <trkpt lat="43.57098" lon="2.1619">
        <ele>184</ele>
        <time>2016-05-14T03:01:38Z</time>
      </trkpt>
      <trkpt lat="43.57081" lon="2.16184">
        <ele>182</ele>
        <time>2016-05-14T03:03:38Z</time>
      </trkpt>
      <trkpt lat="43.57056" lon="2.16187">
        <ele>183</ele>
        <time>2016-05-14T03:05:38Z</time>
      </trkpt>
      <trkpt lat="43.56997" lon="2.16184">
        <ele>182</ele>
        <time>2016-05-14T03:07:38Z</time>
      </trkpt>
      <trkpt lat="43.56966" lon="2.16172">
        <ele>179</ele>
        <time>2016-05-14T03:09:38Z</time>
      </trkpt>
      <trkpt lat="43.56855" lon="2.16086">
        <ele>173</ele>
        <time>2016-05-14T03:11:38Z</time>
      </trkpt>
      <trkpt lat="43.56761" lon="2.16183">
        <ele>172</ele>
        <time>2016-05-14T03:13:38Z</time>
      </trkpt>
      <trkpt lat="43.56693" lon="2.16289">
        <ele>172</ele>
        <time>2016-05-14T03:15:38Z</time>
      </trkpt>
      <trkpt lat="43.56647" lon="2.16403">
        <ele>174</ele>
        <time>2016-05-14T03:17:38Z</time>
      </trkpt>
      <trkpt lat="43.56619" lon="2.16446">
        <ele>176</ele>
        <time>2016-05-14T03:19:38Z</time>
      </trkpt>
      <trkpt lat="43.56512" lon="2.1654">
        <ele>177</ele>
        <time>2016-05-14T03:21:38Z</time>
      </trkpt>
      <trkpt lat="43.5646" lon="2.16593">
        <ele>177</ele>
        <time>2016-05-14T03:23:38Z</time>
      </trkpt>
      <trkpt lat="43.56329" lon="2.16784">
        <ele>176</ele>
        <time>2016-05-14T03:25:38Z</time>
      </trkpt>
      <trkpt lat="43.56249" lon="2.16899">
        <ele>180</ele>
        <time>2016-05-14T03:27:38Z</time>
      </trkpt>
      <trkpt lat="43.56172" lon="2.16977">
        <ele>186</ele>
        <time>2016-05-14T03:29:38Z</time>
      </trkpt>
      <trkpt lat="43.56125" lon="2.17038">
        <ele>190</ele>
        <time>2016-05-14T03:31:38Z</time>
      </trkpt>
      <trkpt lat="43.56072" lon="2.17075">
        <ele>189</ele>
        <time>2016-05-14T03:33:38Z</time>
      </trkpt>
      <trkpt lat="43.56022" lon="2.17116">
        <ele>188</ele>
        <time>2016-05-14T03:35:38Z</time>
      </trkpt>
      <trkpt lat="43.55958" lon="2.17196">
        <ele>189</ele>
        <time>2016-05-14T03:37:38Z</time>
      </trkpt>
      <trkpt lat="43.55921" lon="2.17232">
        <ele>188</ele>
        <time>2016-05-14T03:39:38Z</time>
      </trkpt>
      <trkpt lat="43.55905" lon="2.17236">
        <ele>187</ele>
        <time>2016-05-14T03:41:38Z</time>
      </trkpt>
      <trkpt lat="43.55927" lon="2.17348">
        <ele>196</ele>
        <time>2016-05-14T03:43:38Z</time>
      </trkpt>
      <trkpt lat="43.55983" lon="2.1743">
        <ele>206</ele>
        <time>2016-05-14T03:45:38Z</time>
      </trkpt>
      <trkpt lat="43.56002" lon="2.17474">
        <ele>209</ele>
        <time>2016-05-14T03:47:38Z</time>
      </trkpt>
      <trkpt lat="43.56031" lon="2.17571">
        <ele>219</ele>
        <time>2016-05-14T03:49:38Z</time>
      </trkpt>
      <trkpt lat="43.56021" lon="2.17644">
        <ele>224</ele>
        <time>2016-05-14T03:51:38Z</time>
      </trkpt>
      <trkpt lat="43.56064" lon="2.17653">
        <ele>227</ele>
        <time>2016-05-14T03:53:38Z</time>
      </trkpt>
      <trkpt lat="43.56092" lon="2.17653">
        <ele>229</ele>
        <time>2016-05-14T03:55:38Z</time>
      </trkpt>
      <trkpt lat="43.56103" lon="2.17644">
        <ele>230</ele>
        <time>2016-05-14T03:57:38Z</time>
      </trkpt>
      <trkpt lat="43.56106" lon="2.17619">
        <ele>229</ele>
        <time>2016-05-14T03:59:38Z</time>
      </trkpt>
      <trkpt lat="43.56114" lon="2.17578">
        <ele>229</ele>
        <time>2016-05-14T04:01:38Z</time>
      </trkpt>
      <trkpt lat="43.5619" lon="2.17589">
        <ele>238</ele>
        <time>2016-05-14T04:03:38Z</time>
      </trkpt>
      <trkpt lat="43.56154" lon="2.17686">
        <ele>237</ele>
        <time>2016-05-14T04:05:38Z</time>
      </trkpt>
      <trkpt lat="43.56119" lon="2.17763">
        <ele>236</ele>
        <time>2016-05-14T04:07:38Z</time>
      </trkpt>
      <trkpt lat="43.56098" lon="2.17853">
        <ele>237</ele>
        <time>2016-05-14T04:09:38Z</time>
      </trkpt>
      <trkpt lat="43.56089" lon="2.17923">
        <ele>238</ele>
        <time>2016-05-14T04:11:38Z</time>
      </trkpt>
      <trkpt lat="43.56076" lon="2.1798">
        <ele>239</ele>
        <time>2016-05-14T04:13:38Z</time>
      </trkpt>
      <trkpt lat="43.56044" lon="2.18043">
        <ele>240</ele>
        <time>2016-05-14T04:15:38Z</time>
      </trkpt>
      <trkpt lat="43.55922" lon="2.17992">
        <ele>240</ele>
        <time>2016-05-14T04:17:38Z</time>
      </trkpt>
      <trkpt lat="43.55877" lon="2.17917">
        <ele>238</ele>
        <time>2016-05-14T04:19:38Z</time>
      </trkpt>
      <trkpt lat="43.55852" lon="2.17882">
        <ele>238</ele>
        <time>2016-05-14T04:21:38Z</time>
      </trkpt>
      <trkpt lat="43.55819" lon="2.17875">
        <ele>237</ele>
        <time>2016-05-14T04:23:38Z</time>
      </trkpt>
      <trkpt lat="43.55793" lon="2.17901">
        <ele>234</ele>
        <time>2016-05-14T04:25:38Z</time>
      </trkpt>
      <trkpt lat="43.55769" lon="2.17945">
        <ele>232</ele>
        <time>2016-05-14T04:27:38Z</time>
      </trkpt>
      <trkpt lat="43.55746" lon="2.18029">
        <ele>231</ele>
        <time>2016-05-14T04:29:38Z</time>
      </trkpt>
      <trkpt lat="43.55726" lon="2.18039">
        <ele>231</ele>
        <time>2016-05-14T04:31:38Z</time>
      </trkpt>
      <trkpt lat="43.55688" lon="2.18024">
        <ele>228</ele>
        <time>2016-05-14T04:33:38Z</time>
      </trkpt>
      <trkpt lat="43.55651" lon="2.18015">
        <ele>224</ele>
        <time>2016-05-14T04:35:38Z</time>
      </trkpt>
      <trkpt lat="43.55575" lon="2.18042">
        <ele>219</ele>
        <time>2016-05-14T04:37:38Z</time>
      </trkpt>
      <trkpt lat="43.55579" lon="2.18084">
        <ele>222</ele>
        <time>2016-05-14T04:39:38Z</time>
      </trkpt>
      <trkpt lat="43.55586" lon="2.18118">
        <ele>224</ele>
        <time>2016-05-14T04:41:38Z</time>
      </trkpt>
      <trkpt lat="43.55608" lon="2.18152">
        <ele>226</ele>
        <time>2016-05-14T04:43:38Z</time>
      </trkpt>
      <trkpt lat="43.55631" lon="2.18166">
        <ele>228</ele>
        <time>2016-05-14T04:45:38Z</time>
      </trkpt>
      <trkpt lat="43.55667" lon="2.18182">
        <ele>231</ele>
        <time>2016-05-14T04:47:38Z</time>
      </trkpt>
      <trkpt lat="43.5568" lon="2.18198">
        <ele>232</ele>
        <time>2016-05-14T04:49:38Z</time>
      </trkpt>
      <trkpt lat="43.55675" lon="2.18228">
        <ele>231</ele>
        <time>2016-05-14T04:51:38Z</time>
      </trkpt>
      <trkpt lat="43.55667" lon="2.1833">
        <ele>232</ele>
        <time>2016-05-14T04:53:38Z</time>
      </trkpt>
      <trkpt lat="43.5566" lon="2.18365">
        <ele>232</ele>
        <time>2016-05-14T04:55:38Z</time>
      </trkpt>
      <trkpt lat="43.5563" lon="2.18412">
        <ele>228</ele>
        <time>2016-05-14T04:57:38Z</time>
      </trkpt>
      <trkpt lat="43.55621" lon="2.18443">
        <ele>226</ele>
        <time>2016-05-14T04:59:38Z</time>
      </trkpt>
      <trkpt lat="43.55624" lon="2.18476">
        <ele>225</ele>
        <time>2016-05-14T05:01:38Z</time>
      </trkpt>
      <trkpt lat="43.55676" lon="2.18551">
        <ele>230</ele>
        <time>2016-05-14T05:03:38Z</time>
      </trkpt>
      <trkpt lat="43.5569" lon="2.18586">
        <ele>230</ele>
        <time>2016-05-14T05:05:38Z</time>
      </trkpt>
      <trkpt lat="43.55704" lon="2.18618">
        <ele>231</ele>
        <time>2016-05-14T05:07:38Z</time>
      </trkpt>
      <trkpt lat="43.55738" lon="2.18734">
        <ele>231</ele>
        <time>2016-05-14T05:09:38Z</time>
      </trkpt>
      <trkpt lat="43.55764" lon="2.1881">
        <ele>231</ele>
        <time>2016-05-14T05:11:38Z</time>
      </trkpt>
      <trkpt lat="43.55758" lon="2.18818">
        <ele>230</ele>
        <time>2016-05-14T05:13:38Z</time>
      </trkpt>
      <trkpt lat="43.55749" lon="2.18829">
        <ele>228</ele>
        <time>2016-05-14T05:15:38Z</time>
      </trkpt>
      <trkpt lat="43.55627" lon="2.18917">
        <ele>202</ele>
        <time>2016-05-14T05:17:38Z</time>
      </trkpt>
      <trkpt lat="43.55618" lon="2.18928">
        <ele>201</ele>
        <time>2016-05-14T05:19:38Z</time>
      </trkpt>
      <trkpt lat="43.5563" lon="2.19015">
        <ele>200</ele>
        <time>2016-05-14T05:21:38Z</time>
      </trkpt>
      <trkpt lat="43.55681" lon="2.19051">
        <ele>203</ele>
        <time>2016-05-14T05:23:38Z</time>
      </trkpt>
      <trkpt lat="43.55713" lon="2.1905">
        <ele>207</ele>
        <time>2016-05-14T05:25:38Z</time>
      </trkpt>
      <trkpt lat="43.55747" lon="2.19062">
        <ele>209</ele>
        <time>2016-05-14T05:27:38Z</time>
      </trkpt>
      <trkpt lat="43.55802" lon="2.19065">
        <ele>213</ele>
        <time>2016-05-14T05:29:38Z</time>
      </trkpt>
      <trkpt lat="43.55832" lon="2.19072">
        <ele>214</ele>
        <time>2016-05-14T05:31:38Z</time>
      </trkpt>
      <trkpt lat="43.5588" lon="2.1907">
        <ele>218</ele>
        <time>2016-05-14T05:33:38Z</time>
      </trkpt>
      <trkpt lat="43.55934" lon="2.19099">
        <ele>221</ele>
        <time>2016-05-14T05:35:38Z</time>
      </trkpt>
      <trkpt lat="43.5599" lon="2.19154">
        <ele>220</ele>
        <time>2016-05-14T05:37:38Z</time>
      </trkpt>
      <trkpt lat="43.55999" lon="2.19167">
        <ele>218</ele>
        <time>2016-05-14T05:39:38Z</time>
      </trkpt>
      <trkpt lat="43.56023" lon="2.19215">
        <ele>220</ele>
        <time>2016-05-14T05:41:38Z</time>
      </trkpt>
      <trkpt lat="43.56051" lon="2.19239">
        <ele>221</ele>
        <time>2016-05-14T05:43:38Z</time>
      </trkpt>
      <trkpt lat="43.56114" lon="2.19348">
        <ele>219</ele>
        <time>2016-05-14T05:45:38Z</time>
      </trkpt>
      <trkpt lat="43.56129" lon="2.19353">
        <ele>219</ele>
        <time>2016-05-14T05:47:38Z</time>
      </trkpt>
      <trkpt lat="43.56175" lon="2.19349">
        <ele>219</ele>
        <time>2016-05-14T05:49:38Z</time>
      </trkpt>
      <trkpt lat="43.56247" lon="2.19324">
        <ele>225</ele>
        <time>2016-05-14T05:51:38Z</time>
      </trkpt>
      <trkpt lat="43.56245" lon="2.19251">
        <ele>229</ele>
        <time>2016-05-14T05:53:38Z</time>
      </trkpt>
      <trkpt lat="43.56276" lon="2.19248">
        <ele>229</ele>
        <time>2016-05-14T05:55:38Z</time>
      </trkpt>
      <trkpt lat="43.56328" lon="2.19215">
        <ele>232</ele>
        <time>2016-05-14T05:57:38Z</time>
      </trkpt>
      <trkpt lat="43.5634" lon="2.19207">
        <ele>232</ele>
        <time>2016-05-14T05:59:38Z</time>
      </trkpt>
      <trkpt lat="43.56363" lon="2.1918">
        <ele>235</ele>
        <time>2016-05-14T06:01:38Z</time>
      </trkpt>
      <trkpt lat="43.56378" lon="2.1915">
        <ele>237</ele>
        <time>2016-05-14T06:03:38Z</time>
      </trkpt>
      <trkpt lat="43.56387" lon="2.19109">
        <ele>240</ele>
        <time>2016-05-14T06:05:38Z</time>
      </trkpt>
      <trkpt lat="43.56397" lon="2.1908">
        <ele>242</ele>
        <time>2016-05-14T06:07:38Z</time>
      </trkpt>
      <trkpt lat="43.56416" lon="2.19064">
        <ele>243</ele>
        <time>2016-05-14T06:09:38Z</time>
      </trkpt>
      <trkpt lat="43.56429" lon="2.19062">
        <ele>244</ele>
        <time>2016-05-14T06:11:38Z</time>
      </trkpt>
      <trkpt lat="43.56446" lon="2.19073">
        <ele>245</ele>
        <time>2016-05-14T06:13:38Z</time>
      </trkpt>
      <trkpt lat="43.56445" lon="2.19091">
        <ele>244</ele>
        <time>2016-05-14T06:15:38Z</time>
      </trkpt>
      <trkpt lat="43.5646" lon="2.19146">
        <ele>242</ele>
        <time>2016-05-14T06:17:38Z</time>
      </trkpt>
      <trkpt lat="43.56493" lon="2.19204">
        <ele>241</ele>
        <time>2016-05-14T06:19:38Z</time>
      </trkpt>
      <trkpt lat="43.56497" lon="2.19213">
        <ele>241</ele>
        <time>2016-05-14T06:21:38Z</time>
      </trkpt>
      <trkpt lat="43.56499" lon="2.1923">
        <ele>240</ele>
        <time>2016-05-14T06:23:38Z</time>
      </trkpt>
      <trkpt lat="43.56498" lon="2.19288">
        <ele>240</ele>
        <time>2016-05-14T06:25:38Z</time>
      </trkpt>
      <trkpt lat="43.56495" lon="2.1962">
        <ele>254</ele>
        <time>2016-05-14T06:27:38Z</time>
      </trkpt>
      <trkpt lat="43.56497" lon="2.19632">
        <ele>253</ele>
        <time>2016-05-14T06:29:38Z</time>
      </trkpt>
      <trkpt lat="43.5661" lon="2.19502">
        <ele>251</ele>
        <time>2016-05-14T06:31:38Z</time>
      </trkpt>
      <trkpt lat="43.56661" lon="2.19448">
        <ele>247</ele>
        <time>2016-05-14T06:33:38Z</time>
      </trkpt>
      <trkpt lat="43.56724" lon="2.19423">
        <ele>247</ele>
        <time>2016-05-14T06:35:38Z</time>
      </trkpt>
      <trkpt lat="43.56796" lon="2.19386">
        <ele>247</ele>
        <time>2016-05-14T06:37:38Z</time>
      </trkpt>
      <trkpt lat="43.56857" lon="2.19342">
        <ele>245</ele>
        <time>2016-05-14T06:39:38Z</time>
      </trkpt>
      <trkpt lat="43.56937" lon="2.19256">
        <ele>242</ele>
        <time>2016-05-14T06:41:38Z</time>
      </trkpt>
      <trkpt lat="43.56958" lon="2.19252">
        <ele>239</ele>
        <time>2016-05-14T06:43:38Z</time>
      </trkpt>
      <trkpt lat="43.5703" lon="2.19191">
        <ele>236</ele>
        <time>2016-05-14T06:45:38Z</time>
      </trkpt>
      <trkpt lat="43.57072" lon="2.19142">
        <ele>232</ele>
        <time>2016-05-14T06:47:38Z</time>
      </trkpt>
      <trkpt lat="43.57098" lon="2.19099">
        <ele>232</ele>
        <time>2016-05-14T06:49:38Z</time>
      </trkpt>
      <trkpt lat="43.57134" lon="2.1902">
        <ele>229</ele>
        <time>2016-05-14T06:51:38Z</time>
      </trkpt>
      <trkpt lat="43.57163" lon="2.18968">
        <ele>226</ele>
        <time>2016-05-14T06:53:38Z</time>
      </trkpt>
      <trkpt lat="43.57207" lon="2.19005">
        <ele>221</ele>
        <time>2016-05-14T06:55:38Z</time>
      </trkpt>
      <trkpt lat="43.57122" lon="2.19356">
        <ele>228</ele>
        <time>2016-05-14T06:57:38Z</time>
      </trkpt>
      <trkpt lat="43.57122" lon="2.19369">
        <ele>228</ele>
        <time>2016-05-14T06:59:38Z</time>
      </trkpt>
      <trkpt lat="43.57237" lon="2.19437">
        <ele>242</ele>
        <time>2016-05-14T07:01:38Z</time>
      </trkpt>
      <trkpt lat="43.57293" lon="2.19464">
        <ele>250</ele>
        <time>2016-05-14T07:03:38Z</time>
      </trkpt>
      <trkpt lat="43.57358" lon="2.19471">
        <ele>256</ele>
        <time>2016-05-14T07:05:38Z</time>
      </trkpt>
      <trkpt lat="43.5742" lon="2.19488">
        <ele>259</ele>
        <time>2016-05-14T07:07:38Z</time>
      </trkpt>
      <trkpt lat="43.57452" lon="2.19502">
        <ele>256</ele>
        <time>2016-05-14T07:09:38Z</time>
      </trkpt>
      <trkpt lat="43.57487" lon="2.19598">
        <ele>252</ele>
        <time>2016-05-14T07:11:38Z</time>
      </trkpt>
      <trkpt lat="43.57516" lon="2.19633">
        <ele>250</ele>
        <time>2016-05-14T07:13:38Z</time>
      </trkpt>
      <trkpt lat="43.57553" lon="2.19657">
        <ele>245</ele>
        <time>2016-05-14T07:15:38Z</time>
      </trkpt>
      <trkpt lat="43.57563" lon="2.19672">
        <ele>244</ele>
        <time>2016-05-14T07:17:38Z</time>
      </trkpt>
      <trkpt lat="43.57571" lon="2.19699">
        <ele>242</ele>
        <time>2016-05-14T07:19:38Z</time>
      </trkpt>
      <trkpt lat="43.57582" lon="2.19732">
        <ele>239</ele>
        <time>2016-05-14T07:21:38Z</time>
      </trkpt>
      <trkpt lat="43.5761" lon="2.19773">
        <ele>232</ele>
        <time>2016-05-14T07:23:38Z</time>
      </trkpt>
      <trkpt lat="43.57612" lon="2.19797">
        <ele>231</ele>
        <time>2016-05-14T07:25:38Z</time>
      </trkpt>
      <trkpt lat="43.57594" lon="2.19842">
        <ele>234</ele>
        <time>2016-05-14T07:27:38Z</time>
      </trkpt>
      <trkpt lat="43.57585" lon="2.19889">
        <ele>236</ele>
        <time>2016-05-14T07:29:38Z</time>
      </trkpt>
      <trkpt lat="43.57591" lon="2.19919">
        <ele>235</ele>
        <time>2016-05-14T07:31:38Z</time>
      </trkpt>
      <trkpt lat="43.57617" lon="2.19984">
        <ele>231</ele>
        <time>2016-05-14T07:33:38Z</time>
      </trkpt>
      <trkpt lat="43.57631" lon="2.20033">
        <ele>229</ele>
        <time>2016-05-14T07:35:38Z</time>
      </trkpt>
      <trkpt lat="43.57693" lon="2.20198">
        <ele>223</ele>
        <time>2016-05-14T07:37:38Z</time>
      </trkpt>
      <trkpt lat="43.57703" lon="2.20237">
        <ele>222</ele>
        <time>2016-05-14T07:39:38Z</time>
      </trkpt>
      <trkpt lat="43.57727" lon="2.20357">
        <ele>215</ele>
        <time>2016-05-14T07:41:38Z</time>
      </trkpt>
      <trkpt lat="43.57729" lon="2.20374">
        <ele>213</ele>
        <time>2016-05-14T07:43:38Z</time>
      </trkpt>
      <trkpt lat="43.57734" lon="2.20468">
        <ele>202</ele>
        <time>2016-05-14T07:45:38Z</time>
      </trkpt>
      <trkpt lat="43.57739" lon="2.20492">
        <ele>200</ele>
        <time>2016-05-14T07:47:38Z</time>
      </trkpt>
      <trkpt lat="43.57833" lon="2.2066">
        <ele>187</ele>
        <time>2016-05-14T07:49:38Z</time>
      </trkpt>
      <trkpt lat="43.57916" lon="2.20715">
        <ele>186</ele>
        <time>2016-05-14T07:51:38Z</time>
      </trkpt>
      <trkpt lat="43.57957" lon="2.20731">
        <ele>185</ele>
        <time>2016-05-14T07:53:38Z</time>
      </trkpt>
      <trkpt lat="43.5801" lon="2.20747">
        <ele>184</ele>
        <time>2016-05-14T07:55:38Z</time>
      </trkpt>
      <trkpt lat="43.58064" lon="2.20774">
        <ele>181</ele>
        <time>2016-05-14T07:57:38Z</time>
      </trkpt>
      <trkpt lat="43.58078" lon="2.20718">
        <ele>182</ele>
        <time>2016-05-14T07:59:38Z</time>
      </trkpt>
      <trkpt lat="43.5828" lon="2.20683">
        <ele>183</ele>
        <time>2016-05-14T08:01:38Z</time>
      </trkpt>
      <trkpt lat="43.58288" lon="2.20685">
        <ele>183</ele>
        <time>2016-05-14T08:03:38Z</time>
      </trkpt>
      <trkpt lat="43.5831" lon="2.20726">
        <ele>184</ele>
        <time>2016-05-14T08:05:38Z</time>
      </trkpt>
      <trkpt lat="43.5832" lon="2.20739">
        <ele>184</ele>
        <time>2016-05-14T08:07:38Z</time>
      </trkpt>
      <trkpt lat="43.58463" lon="2.20805">
        <ele>171</ele>
        <time>2016-05-14T08:09:38Z</time>
      </trkpt>
      <trkpt lat="43.58474" lon="2.20803">
        <ele>170</ele>
        <time>2016-05-14T08:11:38Z</time>
      </trkpt>
      <trkpt lat="43.58506" lon="2.2078">
        <ele>170</ele>
        <time>2016-05-14T08:13:38Z</time>
      </trkpt>
      <trkpt lat="43.58517" lon="2.2076">
        <ele>171</ele>
        <time>2016-05-14T08:15:38Z</time>
      </trkpt>
      <trkpt lat="43.58533" lon="2.20727">
        <ele>171</ele>
        <time>2016-05-14T08:17:38Z</time>
      </trkpt>
      <trkpt lat="43.58662" lon="2.20375">
        <ele>167</ele>
        <time>2016-05-14T08:19:38Z</time>
      </trkpt>
      <trkpt lat="43.58691" lon="2.20309">
        <ele>168</ele>
        <time>2016-05-14T08:21:38Z</time>
      </trkpt>
      <trkpt lat="43.58709" lon="2.2026">
        <ele>168</ele>
        <time>2016-05-14T08:23:38Z</time>
      </trkpt>
      <trkpt lat="43.58716" lon="2.20222">
        <ele>168</ele>
        <time>2016-05-14T08:25:38Z</time>
      </trkpt>
      <trkpt lat="43.58721" lon="2.20154">
        <ele>167</ele>
        <time>2016-05-14T08:27:38Z</time>
      </trkpt>
      <trkpt lat="43.58772" lon="2.20007">
        <ele>165</ele>
        <time>2016-05-14T08:29:38Z</time>
      </trkpt>
      <trkpt lat="43.58779" lon="2.19981">
        <ele>165</ele>
        <time>2016-05-14T08:31:38Z</time>
      </trkpt>
      <trkpt lat="43.58781" lon="2.19951">
        <ele>164</ele>
        <time>2016-05-14T08:33:38Z</time>
      </trkpt>
      <trkpt lat="43.58772" lon="2.19864">
        <ele>164</ele>
        <time>2016-05-14T08:35:38Z</time>
      </trkpt>
      <trkpt lat="43.58767" lon="2.19838">
        <ele>163</ele>
        <time>2016-05-14T08:37:38Z</time>
      </trkpt>
      <trkpt lat="43.58677" lon="2.19329">
        <ele>166</ele>
        <time>2016-05-14T08:39:38Z</time>
      </trkpt>
      <trkpt lat="43.58636" lon="2.19096">
        <ele>166</ele>
        <time>2016-05-14T08:41:38Z</time>
      </trkpt>
      <trkpt lat="43.58627" lon="2.19073">
        <ele>166</ele>
        <time>2016-05-14T08:43:38Z</time>
      </trkpt>
      <trkpt lat="43.58547" lon="2.18982">
        <ele>167</ele>
        <time>2016-05-14T08:45:38Z</time>
      </trkpt>
      <trkpt lat="43.58502" lon="2.18841">
        <ele>168</ele>
        <time>2016-05-14T08:47:38Z</time>
      </trkpt>
      <trkpt lat="43.58561" lon="2.18782">
        <ele>167</ele>
        <time>2016-05-14T08:49:38Z</time>
      </trkpt>
      <trkpt lat="43.58573" lon="2.18727">
        <ele>164</ele>
        <time>2016-05-14T08:51:38Z</time>
      </trkpt>
      <trkpt lat="43.58564" lon="2.18704">
        <ele>163</ele>
        <time>2016-05-14T08:53:38Z</time>
      </trkpt>
      <trkpt lat="43.58557" lon="2.18689">
        <ele>162</ele>
        <time>2016-05-14T08:55:38Z</time>
      </trkpt>
      <trkpt lat="43.58549" lon="2.18662">
        <ele>161</ele>
        <time>2016-05-14T08:57:38Z</time>
      </trkpt>
      <trkpt lat="43.58525" lon="2.18642">
        <ele>162</ele>
        <time>2016-05-14T08:59:38Z</time>
      </trkpt>
      <trkpt lat="43.58472" lon="2.18604">
        <ele>162</ele>
        <time>2016-05-14T09:01:38Z</time>
      </trkpt>
      <trkpt lat="43.5844" lon="2.18603">
        <ele>163</ele>
        <time>2016-05-14T09:03:38Z</time>
      </trkpt>
      <trkpt lat="43.58397" lon="2.18588">
        <ele>162</ele>
        <time>2016-05-14T09:05:38Z</time>
      </trkpt>
      <trkpt lat="43.5838" lon="2.18596">
        <ele>163</ele>
        <time>2016-05-14T09:07:38Z</time>
      </trkpt>
      <trkpt lat="43.58339" lon="2.18569">
        <ele>162</ele>
        <time>2016-05-14T09:09:38Z</time>
      </trkpt>
      <trkpt lat="43.58224" lon="2.18547">
        <ele>167</ele>
        <time>2016-05-14T09:11:38Z</time>
      </trkpt>
      <trkpt lat="43.58229" lon="2.18488">
        <ele>168</ele>
        <time>2016-05-14T09:13:38Z</time>
      </trkpt>
      <trkpt lat="43.58227" lon="2.18402">
        <ele>170</ele>
        <time>2016-05-14T09:15:38Z</time>
      </trkpt>
      <trkpt lat="43.58167" lon="2.18396">
        <ele>181</ele>
        <time>2016-05-14T09:17:38Z</time>
      </trkpt>
      <trkpt lat="43.58152" lon="2.18417">
        <ele>181</ele>
        <time>2016-05-14T09:19:38Z</time>
      </trkpt>
      <trkpt lat="43.5813" lon="2.18424">
        <ele>181</ele>
        <time>2016-05-14T09:21:38Z</time>
      </trkpt>
      <trkpt lat="43.58113" lon="2.18402">
        <ele>182</ele>
        <time>2016-05-14T09:23:38Z</time>
      </trkpt>
      <trkpt lat="43.58081" lon="2.18344">
        <ele>184</ele>
        <time>2016-05-14T09:25:38Z</time>
      </trkpt>
      <trkpt lat="43.58041" lon="2.18307">
        <ele>186</ele>
        <time>2016-05-14T09:27:38Z</time>
      </trkpt>
      <trkpt lat="43.58001" lon="2.18294">
        <ele>188</ele>
        <time>2016-05-14T09:29:38Z</time>
      </trkpt>
      <trkpt lat="43.57954" lon="2.18287">
        <ele>189</ele>
        <time>2016-05-14T09:31:38Z</time>
      </trkpt>
      <trkpt lat="43.57938" lon="2.18275">
        <ele>190</ele>
        <time>2016-05-14T09:33:38Z</time>
      </trkpt>
      <trkpt lat="43.57939" lon="2.1826">
        <ele>190</ele>
        <time>2016-05-14T09:35:38Z</time>
      </trkpt>
      <trkpt lat="43.57966" lon="2.1825">
        <ele>190</ele>
        <time>2016-05-14T09:37:38Z</time>
      </trkpt>
      <trkpt lat="43.58004" lon="2.18236">
        <ele>191</ele>
        <time>2016-05-14T09:39:38Z</time>
      </trkpt>
      <trkpt lat="43.58029" lon="2.18203">
        <ele>191</ele>
        <time>2016-05-14T09:41:38Z</time>
      </trkpt>
      <trkpt lat="43.58045" lon="2.18159">
        <ele>191</ele>
        <time>2016-05-14T09:43:38Z</time>
      </trkpt>
      <trkpt lat="43.58052" lon="2.18152">
        <ele>191</ele>
        <time>2016-05-14T09:45:38Z</time>
      </trkpt>
      <trkpt lat="43.58053" lon="2.18133">
        <ele>191</ele>
        <time>2016-05-14T09:47:38Z</time>
      </trkpt>
      <trkpt lat="43.58038" lon="2.18132">
        <ele>193</ele>
        <time>2016-05-14T09:49:38Z</time>
      </trkpt>
      <trkpt lat="43.58009" lon="2.18158">
        <ele>195</ele>
        <time>2016-05-14T09:51:38Z</time>
      </trkpt>
      <trkpt lat="43.57995" lon="2.18174">
        <ele>195</ele>
        <time>2016-05-14T09:53:38Z</time>
      </trkpt>
      <trkpt lat="43.57985" lon="2.18162">
        <ele>197</ele>
        <time>2016-05-14T09:55:38Z</time>
      </trkpt>
      <trkpt lat="43.57986" lon="2.18111">
        <ele>204</ele>
        <time>2016-05-14T09:57:38Z</time>
      </trkpt>
      <trkpt lat="43.57992" lon="2.18073">
        <ele>207</ele>
        <time>2016-05-14T09:59:38Z</time>
      </trkpt>
      <trkpt lat="43.57998" lon="2.18036">
        <ele>211</ele>
        <time>2016-05-14T10:01:38Z</time>
      </trkpt>
      <trkpt lat="43.57996" lon="2.18011">
        <ele>214</ele>
        <time>2016-05-14T10:03:38Z</time>
      </trkpt>
      <trkpt lat="43.57987" lon="2.18014">
        <ele>216</ele>
        <time>2016-05-14T10:05:38Z</time>
      </trkpt>
      <trkpt lat="43.57975" lon="2.18039">
        <ele>216</ele>
        <time>2016-05-14T10:07:38Z</time>
      </trkpt>
      <trkpt lat="43.57969" lon="2.1804">
        <ele>217</ele>
        <time>2016-05-14T10:09:38Z</time>
      </trkpt>
      <trkpt lat="43.57956" lon="2.18014">
        <ele>223</ele>
        <time>2016-05-14T10:11:38Z</time>
      </trkpt>
      <trkpt lat="43.5794" lon="2.17975">
        <ele>231</ele>
        <time>2016-05-14T10:13:38Z</time>
      </trkpt>
      <trkpt lat="43.57938" lon="2.17891">
        <ele>237</ele>
        <time>2016-05-14T10:15:38Z</time>
      </trkpt>
      <trkpt lat="43.57954" lon="2.17734">
        <ele>240</ele>
        <time>2016-05-14T10:17:38Z</time>
      </trkpt>
      <trkpt lat="43.57965" lon="2.17582">
        <ele>242</ele>
        <time>2016-05-14T10:19:38Z</time>
      </trkpt>
      <trkpt lat="43.57939" lon="2.17408">
        <ele>241</ele>
        <time>2016-05-14T10:21:38Z</time>
      </trkpt>
      <trkpt lat="43.58" lon="2.17443">
        <ele>241</ele>
        <time>2016-05-14T10:23:38Z</time>
      </trkpt>
      <trkpt lat="43.58028" lon="2.17428">
        <ele>239</ele>
        <time>2016-05-14T10:25:38Z</time>
      </trkpt>
      <trkpt lat="43.58153" lon="2.1742">
        <ele>218</ele>
        <time>2016-05-14T10:27:38Z</time>
      </trkpt>
      <trkpt lat="43.58204" lon="2.17336">
        <ele>217</ele>
        <time>2016-05-14T10:29:38Z</time>
      </trkpt>
      <trkpt lat="43.58213" lon="2.17338">
        <ele>214</ele>
        <time>2016-05-14T10:31:38Z</time>
      </trkpt>
      <trkpt lat="43.58275" lon="2.17268">
        <ele>199</ele>
        <time>2016-05-14T10:33:38Z</time>
      </trkpt>
      <trkpt lat="43.58317" lon="2.1728">
        <ele>188</ele>
        <time>2016-05-14T10:35:38Z</time>
      </trkpt>
      <trkpt lat="43.58308" lon="2.17357">
        <ele>188</ele>
        <time>2016-05-14T10:37:38Z</time>
      </trkpt>
      <trkpt lat="43.58315" lon="2.17398">
        <ele>185</ele>
        <time>2016-05-14T10:39:38Z</time>
      </trkpt>
      <trkpt lat="43.58347" lon="2.17475">
        <ele>181</ele>
        <time>2016-05-14T10:41:38Z</time>
      </trkpt>
      <trkpt lat="43.5836" lon="2.17512">
        <ele>180</ele>
        <time>2016-05-14T10:43:38Z</time>
      </trkpt>
      <trkpt lat="43.58372" lon="2.17613">
        <ele>178</ele>
        <time>2016-05-14T10:45:38Z</time>
      </trkpt>
      <trkpt lat="43.58352" lon="2.17684">
        <ele>179</ele>
        <time>2016-05-14T10:47:38Z</time>
      </trkpt>
      <trkpt lat="43.58343" lon="2.17736">
        <ele>180</ele>
        <time>2016-05-14T10:49:38Z</time>
      </trkpt>
      <trkpt lat="43.58342" lon="2.17782">
        <ele>180</ele>
        <time>2016-05-14T10:51:38Z</time>
      </trkpt>
      <trkpt lat="43.58355" lon="2.17838">
        <ele>179</ele>
        <time>2016-05-14T10:53:38Z</time>
      </trkpt>
      <trkpt lat="43.58351" lon="2.17855">
        <ele>179</ele>
        <time>2016-05-14T10:55:38Z</time>
      </trkpt>
      <trkpt lat="43.5833" lon="2.17855">
        <ele>179</ele>
        <time>2016-05-14T10:57:38Z</time>
      </trkpt>
      <trkpt lat="43.58301" lon="2.17837">
        <ele>180</ele>
        <time>2016-05-14T10:59:38Z</time>
      </trkpt>
      <trkpt lat="43.58282" lon="2.17829">
        <ele>181</ele>
        <time>2016-05-14T11:01:38Z</time>
      </trkpt>
      <trkpt lat="43.5825" lon="2.17838">
        <ele>182</ele>
        <time>2016-05-14T11:03:38Z</time>
      </trkpt>
      <trkpt lat="43.58217" lon="2.17851">
        <ele>186</ele>
        <time>2016-05-14T11:05:38Z</time>
      </trkpt>
      <trkpt lat="43.58205" lon="2.17854">
        <ele>187</ele>
        <time>2016-05-14T11:07:38Z</time>
      </trkpt>
      <trkpt lat="43.58192" lon="2.17868">
        <ele>187</ele>
        <time>2016-05-14T11:09:38Z</time>
      </trkpt>
      <trkpt lat="43.58179" lon="2.17888">
        <ele>187</ele>
        <time>2016-05-14T11:11:38Z</time>
      </trkpt>
      <trkpt lat="43.58167" lon="2.17909">
        <ele>186</ele>
        <time>2016-05-14T11:13:38Z</time>
      </trkpt>
      <trkpt lat="43.58146" lon="2.17943">
        <ele>189</ele>
        <time>2016-05-14T11:15:38Z</time>
      </trkpt>
      <trkpt lat="43.58122" lon="2.1797">
        <ele>191</ele>
        <time>2016-05-14T11:17:38Z</time>
      </trkpt>
      <trkpt lat="43.58099" lon="2.17995">
        <ele>193</ele>
        <time>2016-05-14T11:19:38Z</time>
      </trkpt>
      <trkpt lat="43.58079" lon="2.18023">
        <ele>193</ele>
        <time>2016-05-14T11:21:38Z</time>
      </trkpt>
      <trkpt lat="43.58085" lon="2.18027">
        <ele>192</ele>
        <time>2016-05-14T11:23:38Z</time>
      </trkpt>
      <trkpt lat="43.58095" lon="2.18025">
        <ele>191</ele>
        <time>2016-05-14T11:25:38Z</time>
      </trkpt>
      <trkpt lat="43.58126" lon="2.17999">
        <ele>189</ele>
        <time>2016-05-14T11:27:38Z</time>
      </trkpt>
      <trkpt lat="43.58187" lon="2.18173">
        <ele>181</ele>
        <time>2016-05-14T11:29:38Z</time>
      </trkpt>
      <trkpt lat="43.58201" lon="2.18196">
        <ele>181</ele>
        <time>2016-05-14T11:31:38Z</time>
      </trkpt>
      <trkpt lat="43.58148" lon="2.18266">
        <ele>184</ele>
        <time>2016-05-14T11:33:38Z</time>
      </trkpt>
    </trkseg>
  </trk>
</gpx>